Time;durP1;ratioP1;P1;durP2;ratioP2;P2;SDS_P1;SDS_P2;PMS_P1;PMS_P2;Temp;Humidity;BMP_temperature;BMP_pressure;BME280_temperature;BME280_humidity;BME280_pressure;Samples;Min_cycle;Max_cycle;Signal;HPM_P1;HPM_P2
2023/05/15 00:01:20;;;;;;;11.18;6.28;;;11.00;99.90;;;;;;5036940;28;20033;-80
2023/05/15 00:03:46;;;;;;;11.02;7.15;;;11.00;99.90;;;;;;5019298;28;20137;-80
2023/05/15 00:06:12;;;;;;;11.48;6.85;;;11.00;99.90;;;;;;5019482;28;20034;-80
2023/05/15 00:08:38;;;;;;;9.60;6.65;;;11.00;99.90;;;;;;5019384;28;20374;-80
2023/05/15 00:11:03;;;;;;;8.18;6.20;;;11.00;99.90;;;;;;5018755;28;20045;-80
2023/05/15 00:13:29;;;;;;;10.25;6.32;;;11.00;99.90;;;;;;5036602;28;20091;-81
2023/05/15 00:15:55;;;;;;;14.02;8.80;;;11.00;99.90;;;;;;5019470;28;20033;-80
2023/05/15 00:18:20;;;;;;;14.00;7.55;;;11.00;99.90;;;;;;5019513;28;20060;-79
2023/05/15 00:20:46;;;;;;;11.48;7.65;;;11.00;99.90;;;;;;5036264;28;20041;-80
2023/05/15 00:23:12;;;;;;;13.05;8.07;;;11.00;99.90;;;;;;5036662;28;20115;-81
2023/05/15 00:25:37;;;;;;;11.10;6.68;;;11.00;99.90;;;;;;5036515;28;20029;-81
2023/05/15 00:28:03;;;;;;;10.63;6.35;;;11.00;99.90;;;;;;5022077;28;20092;-81
2023/05/15 00:30:29;;;;;;;12.52;6.85;;;11.00;99.90;;;;;;5019408;28;20095;-80
2023/05/15 00:32:54;;;;;;;9.13;5.88;;;11.00;99.90;;;;;;5018692;28;20038;-80
2023/05/15 00:35:20;;;;;;;6.82;5.10;;;11.10;99.90;;;;;;5035938;28;20409;-80
2023/05/15 00:37:46;;;;;;;9.07;6.10;;;11.10;99.90;;;;;;5018364;28;20128;-80
2023/05/15 00:40:20;;;;;;;8.85;6.55;;;11.10;99.90;;;;;;5019281;28;20060;-81
2023/05/15 00:42:47;;;;;;;9.48;6.45;;;11.10;99.90;;;;;;5037352;28;20041;-80
2023/05/15 00:45:14;;;;;;;9.80;7.03;;;11.00;99.90;;;;;;5038554;28;20042;-80
2023/05/15 00:47:41;;;;;;;12.13;6.88;;;11.10;99.90;;;;;;5039628;28;20036;-80
2023/05/15 00:50:08;;;;;;;9.27;6.28;;;11.10;99.90;;;;;;5040307;28;20112;-80
2023/05/15 00:52:38;;;;;;;7.85;5.88;;;11.10;99.90;;;;;;5039974;28;20049;-81
2023/05/15 00:55:05;;;;;;;11.38;6.65;;;11.10;99.90;;;;;;5038973;28;20370;-80
2023/05/15 00:57:32;;;;;;;11.00;6.53;;;11.10;99.90;;;;;;5022181;28;20033;-81
2023/05/15 00:59:59;;;;;;;8.75;6.00;;;11.10;99.90;;;;;;5040137;28;20033;-80
2023/05/15 01:02:25;;;;;;;13.63;6.90;;;11.10;99.90;;;;;;5041583;28;20029;-81
2023/05/15 01:04:51;;;;;;;14.20;6.57;;;11.10;99.90;;;;;;5042238;28;20030;-81
2023/05/15 01:07:17;;;;;;;14.70;6.32;;;11.00;99.90;;;;;;5043499;28;20045;-80
2023/05/15 01:09:43;;;;;;;15.15;6.90;;;11.00;99.90;;;;;;5044770;28;20385;-80
2023/05/15 01:12:13;;;;;;;16.13;6.78;;;11.00;99.90;;;;;;5043840;28;20046;-81
2023/05/15 01:14:39;;;;;;;15.80;7.63;;;11.00;99.90;;;;;;5024487;28;20037;-81
2023/05/15 01:17:05;;;;;;;17.95;8.25;;;11.00;99.90;;;;;;5040626;28;20068;-80
2023/05/15 01:19:30;;;;;;;20.88;9.70;;;11.00;99.90;;;;;;5038928;28;20050;-80
2023/05/15 01:22:15;;;;;;;16.10;9.02;;;11.00;99.90;;;;;;5038729;28;20477;-80
2023/05/15 01:24:47;;;;;;;18.95;8.50;;;10.90;99.90;;;;;;5020469;28;20083;-80
2023/05/15 01:27:34;;;;;;;16.40;8.35;;;11.00;99.90;;;;;;5037014;28;20045;-80
2023/05/15 01:30:32;;;;;;;14.48;8.20;;;10.90;99.90;;;;;;5036741;28;20038;-81
2023/05/15 01:33:39;;;;;;;15.27;7.72;;;10.90;99.90;;;;;;5002025;28;20420;-81
2023/05/15 01:36:13;;;;;;;12.05;7.07;;;10.90;99.90;;;;;;5037160;28;20040;-83
2023/05/15 01:38:47;;;;;;;11.52;6.63;;;10.90;99.90;;;;;;5019817;28;20045;-82
2023/05/15 01:41:35;;;;;;;14.98;8.10;;;10.90;99.90;;;;;;5018973;28;20116;-82
2023/05/15 01:44:06;;;;;;;15.80;7.53;;;10.90;99.90;;;;;;5035982;28;20100;-82
2023/05/15 01:46:37;;;;;;;14.07;8.13;;;10.90;99.90;;;;;;5035236;28;20470;-81
2023/05/15 01:49:03;;;;;;;13.63;7.65;;;10.90;99.90;;;;;;5018708;28;20398;-82
2023/05/15 01:51:30;;;;;;;14.00;7.90;;;10.90;99.90;;;;;;5018552;28;20029;-82
2023/05/15 01:53:58;;;;;;;15.35;8.20;;;10.90;99.90;;;;;;5036649;28;20041;-82
2023/05/15 01:56:25;;;;;;;16.60;7.68;;;10.90;99.90;;;;;;5037225;28;20041;-82
2023/05/15 01:58:52;;;;;;;16.70;8.10;;;10.90;99.90;;;;;;5019941;28;20064;-82
2023/05/15 02:01:18;;;;;;;17.15;8.27;;;10.90;99.90;;;;;;5036392;28;20381;-82
2023/05/15 02:03:45;;;;;;;12.20;7.40;;;10.90;99.90;;;;;;5036397;28;20041;-81
2023/05/15 02:06:12;;;;;;;17.35;8.27;;;10.90;99.90;;;;;;5036425;28;20037;-81
2023/05/15 02:08:39;;;;;;;15.85;8.93;;;10.90;99.90;;;;;;5020940;28;20041;-81
2023/05/15 02:11:06;;;;;;;17.90;8.90;;;10.90;99.90;;;;;;5020070;28;20072;-82
2023/05/15 02:13:32;;;;;;;16.85;9.23;;;10.90;99.90;;;;;;5019016;28;20048;-81
2023/05/15 02:15:58;;;;;;;17.40;9.23;;;10.90;99.90;;;;;;5017731;28;20432;-81
2023/05/15 02:18:24;;;;;;;18.13;9.05;;;10.90;99.90;;;;;;5035494;28;20037;-81
2023/05/15 02:20:50;;;;;;;18.50;9.20;;;10.90;99.90;;;;;;5017995;28;20089;-80
2023/05/15 02:23:16;;;;;;;18.23;8.63;;;10.90;99.90;;;;;;5017643;28;20033;-81
2023/05/15 02:26:25;;;;;;;13.52;8.23;;;10.90;99.90;;;;;;5035419;28;20107;-81
2023/05/15 02:29:30;;;;;;;15.73;8.07;;;10.90;99.90;;;;;;4998557;28;20064;-81
2023/05/15 02:32:25;;;;;;;16.45;8.23;;;10.90;99.90;;;;;;5017734;28;20124;-81
2023/05/15 02:34:54;;;;;;;14.43;8.80;;;10.90;99.90;;;;;;4994223;28;20116;-81
2023/05/15 02:37:27;;;;;;;16.17;8.68;;;10.90;99.90;;;;;;5035233;28;20039;-82
2023/05/15 02:39:56;;;;;;;14.65;7.90;;;10.90;99.90;;;;;;5034776;28;20095;-80
2023/05/15 02:42:23;;;;;;;13.95;7.75;;;10.90;99.90;;;;;;5017670;28;20092;-81
2023/05/15 02:44:50;;;;;;;10.38;6.35;;;10.90;99.90;;;;;;5018665;28;20030;-81
2023/05/15 02:47:17;;;;;;;8.25;5.43;;;10.90;99.90;;;;;;5021797;28;20037;-81
2023/05/15 02:49:44;;;;;;;10.55;6.13;;;10.90;99.90;;;;;;5038175;28;20034;-80
2023/05/15 02:52:09;;;;;;;7.97;5.55;;;10.90;99.90;;;;;;5017806;28;20040;-81
2023/05/15 02:54:35;;;;;;;9.60;6.40;;;10.90;99.90;;;;;;5035525;28;20037;-80
2023/05/15 02:57:01;;;;;;;8.35;6.07;;;10.90;99.90;;;;;;5020067;28;20034;-80
2023/05/15 02:59:26;;;;;;;10.02;5.45;;;10.90;99.90;;;;;;5039256;28;20049;-80
2023/05/15 03:01:52;;;;;;;7.80;5.30;;;10.90;99.90;;;;;;5040696;28;20084;-81
2023/05/15 03:04:17;;;;;;;3.40;3.03;;;10.90;99.90;;;;;;5040759;28;20030;-80
2023/05/15 03:06:43;;;;;;;4.10;3.70;;;10.90;99.90;;;;;;5043080;28;20484;-81
2023/05/15 03:09:09;;;;;;;6.45;3.50;;;10.90;99.90;;;;;;5024205;28;20132;-81
2023/05/15 03:11:34;;;;;;;3.80;2.50;;;10.90;99.90;;;;;;5040072;28;20370;-80
2023/05/15 03:14:00;;;;;;;4.85;3.40;;;10.80;99.90;;;;;;5044246;28;20041;-80
2023/05/15 03:16:26;;;;;;;4.28;3.38;;;10.80;99.90;;;;;;5025692;28;20049;-80
2023/05/15 03:18:52;;;;;;;6.70;4.00;;;10.80;99.90;;;;;;5041122;28;20044;-80
2023/05/15 03:21:18;;;;;;;4.63;3.05;;;10.80;99.90;;;;;;5025709;28;20038;-81
2023/05/15 03:23:44;;;;;;;5.05;3.85;;;10.80;99.90;;;;;;5027269;28;20036;-83
2023/05/15 03:26:10;;;;;;;5.50;4.15;;;10.80;99.90;;;;;;5045096;28;20029;-83
2023/05/15 03:28:36;;;;;;;3.67;2.90;;;10.80;99.90;;;;;;5027668;28;20132;-82
2023/05/15 03:31:03;;;;;;;3.30;2.70;;;10.80;99.90;;;;;;5030734;28;20037;-82
2023/05/15 03:33:30;;;;;;;3.80;2.63;;;10.80;99.90;;;;;;5032270;28;20053;-81
2023/05/15 03:35:56;;;;;;;3.97;3.08;;;;;;;;;;5048391;28;20037;-82
2023/05/15 03:38:21;;;;;;;4.05;3.42;;;10.80;99.90;;;;;;5046911;28;20445;-81
2023/05/15 03:40:47;;;;;;;15.60;3.40;;;10.80;99.90;;;;;;5046437;28;20038;-81
2023/05/15 03:43:13;;;;;;;2.95;2.75;;;10.80;99.90;;;;;;5048698;28;20033;-80
2023/05/15 03:45:38;;;;;;;4.85;2.50;;;10.80;99.90;;;;;;5047616;28;20587;-82
2023/05/15 03:48:04;;;;;;;2.40;2.20;;;10.80;99.90;;;;;;5046243;28;20037;-82
2023/05/15 03:50:30;;;;;;;2.80;2.47;;;10.80;99.90;;;;;;5045924;28;20030;-82
2023/05/15 03:52:56;;;;;;;4.03;2.58;;;10.80;99.90;;;;;;5044480;28;20041;-81
2023/05/15 03:55:21;;;;;;;2.00;1.77;;;10.80;99.90;;;;;;5025245;28;20492;-82
2023/05/15 03:57:47;;;;;;;4.15;2.03;;;10.80;99.90;;;;;;5025735;28;20033;-82
2023/05/15 04:00:13;;;;;;;2.95;1.65;;;10.80;99.90;;;;;;5042423;28;20132;-81
2023/05/15 04:02:39;;;;;;;1.50;1.40;;;10.80;99.90;;;;;;5042687;28;20034;-81
2023/05/15 04:05:06;;;;;;;1.70;1.60;;;10.80;99.90;;;;;;5026392;28;20042;-81
2023/05/15 04:07:33;;;;;;;2.85;1.50;;;10.80;99.90;;;;;;5027607;28;20060;-82
2023/05/15 04:10:00;;;;;;;1.50;1.40;;;10.80;99.90;;;;;;5037758;28;20037;-81
2023/05/15 04:12:28;;;;;;;2.58;1.30;;;10.70;99.90;;;;;;5048527;28;20052;-81
2023/05/15 04:14:55;;;;;;;1.40;1.30;;;10.70;99.90;;;;;;5030652;28;20030;-80
2023/05/15 04:17:21;;;;;;;0.63;0.35;;;10.70;99.90;;;;;;5031151;28;20068;-81
2023/05/15 04:19:46;;;;;;;0.43;0.43;;;10.60;99.90;;;;;;5030686;28;20041;-78
2023/05/15 04:22:12;;;;;;;2.03;0.70;;;10.60;99.90;;;;;;5047698;28;20087;-79
2023/05/15 04:24:38;;;;;;;0.70;0.70;;;10.50;99.90;;;;;;5048601;28;20026;-79
2023/05/15 04:27:04;;;;;;;2.45;0.70;;;10.40;99.90;;;;;;5029597;28;20036;-78
2023/05/15 04:29:29;;;;;;;0.98;0.45;;;10.40;99.90;;;;;;5030648;28;20086;-78
2023/05/15 04:31:55;;;;;;;0.68;0.68;;;10.40;99.90;;;;;;5049347;28;20037;-76
2023/05/15 04:34:21;;;;;;;1.15;0.88;;;10.50;99.90;;;;;;5031299;28;20038;-76
2023/05/15 04:36:48;;;;;;;0.95;0.60;;;10.40;99.90;;;;;;5045799;28;20029;-77
2023/05/15 04:39:14;;;;;;;0.52;0.52;;;10.40;99.90;;;;;;5047769;28;20393;-78
2023/05/15 04:41:39;;;;;;;0.52;0.52;;;10.40;99.90;;;;;;5046976;28;20026;-79
2023/05/15 04:44:05;;;;;;;0.63;0.60;;;10.40;99.90;;;;;;5047326;28;20033;-78
2023/05/15 04:46:33;;;;;;;1.10;0.70;;;10.40;99.90;;;;;;5046800;28;20037;-78
2023/05/15 04:48:59;;;;;;;2.55;0.80;;;10.50;99.90;;;;;;5034949;28;20036;-64
2023/05/15 04:51:25;;;;;;;1.20;1.10;;;10.60;99.90;;;;;;5034804;28;20029;-62
2023/05/15 04:53:50;;;;;;;1.90;1.33;;;10.70;99.90;;;;;;5034558;28;20018;-62
2023/05/15 04:56:16;;;;;;;0.90;0.90;;;10.80;99.90;;;;;;5043608;28;20108;-83
2023/05/15 04:58:41;;;;;;;1.50;1.10;;;10.80;99.90;;;;;;5049166;28;20044;-83
2023/05/15 05:01:07;;;;;;;1.60;1.50;;;10.70;99.90;;;;;;5031632;28;20034;-83
2023/05/15 05:03:32;;;;;;;3.10;1.50;;;10.70;99.90;;;;;;5032162;28;20044;-82
2023/05/15 05:05:58;;;;;;;1.33;1.30;;;10.60;99.90;;;;;;5048280;28;20082;-82
2023/05/15 05:08:24;;;;;;;1.08;1.08;;;10.60;99.90;;;;;;5031836;28;20040;-83
2023/05/15 05:10:56;;;;;;;1.52;1.35;;;10.60;99.90;;;;;;5048414;28;20045;-82
2023/05/15 05:13:21;;;;;;;1.10;1.00;;;10.60;99.90;;;;;;5031372;28;20091;-83
2023/05/15 05:15:47;;;;;;;1.98;0.90;;;10.60;99.90;;;;;;5048209;28;20435;-83
2023/05/15 05:18:12;;;;;;;1.40;1.30;;;10.50;99.90;;;;;;5049870;28;20037;-83
2023/05/15 05:20:38;;;;;;;7.85;1.45;;;10.50;99.90;;;;;;5051323;28;20026;-82
2023/05/15 05:23:04;;;;;;;0.90;0.90;;;10.50;99.90;;;;;;5051890;28;20040;-83
2023/05/15 05:25:29;;;;;;;0.75;0.73;;;10.50;99.90;;;;;;5033306;28;20115;-83
2023/05/15 05:27:55;;;;;;;0.50;0.50;;;10.50;99.90;;;;;;5050002;28;20061;-81
2023/05/15 05:30:21;;;;;;;1.48;0.70;;;10.50;99.90;;;;;;5031145;28;20057;-82
2023/05/15 05:32:46;;;;;;;0.80;0.63;;;10.60;99.90;;;;;;5031278;28;20034;-82
2023/05/15 05:35:12;;;;;;;0.50;0.50;;;10.60;99.90;;;;;;5031978;28;20092;-82
2023/05/15 05:37:38;;;;;;;2.55;0.57;;;10.60;99.90;;;;;;5032869;28;20041;-83
2023/05/15 05:40:05;;;;;;;0.40;0.40;;;10.70;99.90;;;;;;5034002;28;20042;-83
2023/05/15 05:42:31;;;;;;;0.50;0.50;;;10.70;99.90;;;;;;5050809;28;20025;-83
2023/05/15 05:44:57;;;;;;;0.40;0.30;;;10.70;99.90;;;;;;5033458;28;20041;-83
2023/05/15 05:47:22;;;;;;;0.50;0.50;;;10.80;99.90;;;;;;5034532;28;20037;-82
2023/05/15 05:49:48;;;;;;;0.70;0.32;;;10.80;99.90;;;;;;5051224;28;20044;-82
2023/05/15 05:52:15;;;;;;;0.15;0.15;;;10.80;99.90;;;;;;5030973;28;20037;-83
2023/05/15 05:54:41;;;;;;;0.40;0.40;;;10.80;99.90;;;;;;5034617;28;20038;-83
2023/05/15 05:57:08;;;;;;;3.22;0.40;;;10.80;99.90;;;;;;5035265;28;20037;-84
2023/05/15 05:59:34;;;;;;;0.35;0.35;;;10.80;99.90;;;;;;5035788;28;20041;-83
2023/05/15 06:02:00;;;;;;;0.20;0.20;;;10.90;99.90;;;;;;5036918;28;20060;-84
2023/05/15 06:04:25;;;;;;;1.98;0.30;;;10.90;99.90;;;;;;5050458;28;20029;-84
2023/05/15 06:06:52;;;;;;;0.10;0.10;;;10.90;99.90;;;;;;5052441;28;20136;-84
2023/05/15 06:09:18;;;;;;;0.22;0.20;;;10.90;99.90;;;;;;5034959;28;20034;-84
2023/05/15 06:11:44;;;;;;;0.68;0.68;;;11.00;99.90;;;;;;5053682;28;20089;-85
2023/05/15 06:14:10;;;;;;;0.75;0.20;;;11.00;99.90;;;;;;5053811;28;20025;-85
2023/05/15 06:16:35;;;;;;;0.40;0.20;;;11.00;99.90;;;;;;5053522;28;20030;-84
2023/05/15 06:19:01;;;;;;;0.65;0.20;;;11.10;99.90;;;;;;5036583;28;20068;-85
2023/05/15 06:21:27;;;;;;;0.22;0.17;;;11.10;99.90;;;;;;5036757;28;20041;-85
2023/05/15 06:23:52;;;;;;;1.20;0.10;;;11.20;99.90;;;;;;5054972;28;20480;-85
2023/05/15 06:26:18;;;;;;;0.10;0.10;;;11.20;99.90;;;;;;5037168;28;20037;-84
2023/05/15 06:28:44;;;;;;;0.17;0.10;;;11.20;99.90;;;;;;5036238;28;20034;-85
2023/05/15 06:31:09;;;;;;;0.20;0.00;;;11.20;99.90;;;;;;5036959;28;20059;-85
2023/05/15 06:33:35;;;;;;;0.20;0.10;;;11.20;99.90;;;;;;5037744;28;20018;-85
2023/05/15 06:36:01;;;;;;;0.10;0.10;;;11.30;99.90;;;;;;5038151;28;20132;-85
2023/05/15 06:38:26;;;;;;;1.83;0.10;;;11.30;99.90;;;;;;5034853;28;20046;-85
2023/05/15 06:40:52;;;;;;;0.10;0.10;;;11.40;99.90;;;;;;5052514;28;20061;-84
2023/05/15 06:43:18;;;;;;;1.10;0.10;;;11.30;99.90;;;;;;5035760;28;20034;-84
2023/05/15 06:45:43;;;;;;;2.03;0.10;;;11.20;99.90;;;;;;5053876;28;20025;-84
2023/05/15 06:48:09;;;;;;;0.10;0.00;;;11.30;99.90;;;;;;5035875;28;20038;-84
2023/05/15 06:50:35;;;;;;;1.98;0.10;;;11.30;99.90;;;;;;5053893;28;20507;-84
2023/05/15 06:53:00;;;;;;;0.30;0.10;;;11.40;99.90;;;;;;5055284;28;20041;-84
2023/05/15 06:55:26;;;;;;;0.57;0.10;;;11.60;99.90;;;;;;5039642;28;20041;-85
2023/05/15 06:57:52;;;;;;;0.20;0.10;;;11.70;99.90;;;;;;5056109;28;20037;-84
2023/05/15 07:00:17;;;;;;;1.33;0.75;;;11.90;99.90;;;;;;5034095;28;20076;-73
2023/05/15 07:02:43;;;;;;;0.20;0.00;;;12.10;99.90;;;;;;5046373;28;20033;-83
2023/05/15 07:05:09;;;;;;;0.30;0.00;;;12.50;99.90;;;;;;5046704;28;20038;-79
2023/05/15 07:07:35;;;;;;;0.40;0.20;;;12.80;99.90;;;;;;5046224;28;20044;-84
2023/05/15 07:10:01;;;;;;;0.75;0.20;;;13.20;99.90;;;;;;5043719;28;20033;-83
2023/05/15 07:12:26;;;;;;;1.65;0.20;;;13.20;99.90;;;;;;5042578;28;20058;-81
2023/05/15 07:14:52;;;;;;;0.63;0.10;;;13.10;99.90;;;;;;5043592;28;20040;-82
2023/05/15 07:17:18;;;;;;;0.35;0.10;;;13.20;99.90;;;;;;5048213;28;20118;-84
2023/05/15 07:19:43;;;;;;;0.30;0.00;;;13.30;99.90;;;;;;5024361;28;20042;-85
2023/05/15 07:22:09;;;;;;;0.10;0.10;;;13.60;99.90;;;;;;5020584;28;20045;-84
2023/05/15 07:24:35;;;;;;;0.55;0.10;;;13.90;99.90;;;;;;5020598;28;20034;-76
2023/05/15 07:27:00;;;;;;;0.20;0.20;;;14.10;99.90;;;;;;5020039;28;20037;-88
2023/05/15 07:29:26;;;;;;;1.13;0.10;;;14.30;99.90;;;;;;5037787;28;20041;-84
2023/05/15 07:31:52;;;;;;;0.77;0.10;;;14.50;99.90;;;;;;5037817;28;20029;-87
2023/05/15 07:34:17;;;;;;;0.00;0.00;;;14.40;99.90;;;;;;5037777;28;20061;-85
2023/05/15 07:36:43;;;;;;;0.63;0.03;;;14.00;99.90;;;;;;5037892;28;20385;-84
2023/05/15 07:39:09;;;;;;;0.65;0.20;;;13.70;99.90;;;;;;5038220;28;20048;-85
2023/05/15 07:41:35;;;;;;;1.40;0.20;;;13.50;99.90;;;;;;5038558;28;20038;-84
2023/05/15 07:44:01;;;;;;;0.30;0.30;;;13.40;99.90;;;;;;5025681;28;20029;-83
2023/05/15 07:46:26;;;;;;;0.80;0.10;;;13.30;99.90;;;;;;5040276;28;20044;-83
2023/05/15 07:48:52;;;;;;;1.17;0.10;;;13.30;99.90;;;;;;5025580;28;20049;-83
2023/05/15 07:51:17;;;;;;;0.65;0.20;;;13.30;99.90;;;;;;5030767;28;20029;-82
2023/05/15 07:53:43;;;;;;;1.30;0.20;;;13.20;99.90;;;;;;5032371;28;20034;-82
2023/05/15 07:56:09;;;;;;;0.65;0.10;;;13.10;99.90;;;;;;5047493;28;20034;-83
2023/05/15 07:58:36;;;;;;;0.20;0.20;;;13.10;99.90;;;;;;5045620;28;20044;-83
2023/05/15 08:01:02;;;;;;;0.85;0.30;;;13.10;99.90;;;;;;5028081;28;20037;-83
2023/05/15 08:03:28;;;;;;;0.13;0.13;;;13.10;99.90;;;;;;5041093;28;20041;-86
2023/05/15 08:05:53;;;;;;;0.20;0.20;;;13.20;99.90;;;;;;5038053;28;20358;-86
2023/05/15 08:08:19;;;;;;;0.15;0.10;;;13.50;99.90;;;;;;5019280;28;20033;-81
2023/05/15 08:10:44;;;;;;;0.10;0.10;;;13.90;99.90;;;;;;5036257;28;20026;-83
2023/05/15 08:13:10;;;;;;;1.55;0.20;;;14.60;99.90;;;;;;5019182;28;20475;-80
2023/05/15 08:15:36;;;;;;;0.32;0.28;;;15.00;99.90;;;;;;5018925;28;20037;-81
2023/05/15 08:18:07;;;;;;;0.22;0.22;;;15.20;99.90;;;;;;5036268;28;20044;-81
2023/05/15 08:20:33;;;;;;;0.20;0.20;;;15.30;99.90;;;;;;5036540;28;20034;-81
2023/05/15 08:22:59;;;;;;;0.30;0.10;;;15.50;99.90;;;;;;5018478;28;20040;-80
2023/05/15 08:25:24;;;;;;;0.20;0.20;;;16.00;99.90;;;;;;5018433;28;20030;-80
2023/05/15 08:27:50;;;;;;;1.73;0.15;;;16.60;99.90;;;;;;5035922;28;20068;-80
2023/05/15 08:30:16;;;;;;;0.30;0.10;;;16.60;99.90;;;;;;5018273;28;20037;-80
2023/05/15 08:32:44;;;;;;;0.98;0.10;;;16.40;99.90;;;;;;5036239;28;20041;-80
2023/05/15 08:35:10;;;;;;;0.38;0.13;;;16.50;99.90;;;;;;5036327;28;20087;-84
2023/05/15 08:37:36;;;;;;;1.65;0.10;;;17.00;99.90;;;;;;5018815;28;20120;-86
2023/05/15 08:40:04;;;;;;;0.10;0.10;;;17.40;99.90;;;;;;5018556;28;20051;-81
2023/05/15 08:42:36;;;;;;;0.10;0.10;;;17.20;99.90;;;;;;5036559;28;20030;-86
2023/05/15 08:45:02;;;;;;;0.55;0.30;;;16.60;99.90;;;;;;5019012;28;20132;-88
2023/05/15 08:47:29;;;;;;;1.08;0.20;;;15.90;99.90;;;;;;5019073;28;20033;-87
2023/05/15 08:49:59;;;;;;;0.30;0.30;;;15.20;99.90;;;;;;5036687;28;20120;-86
2023/05/15 08:52:25;;;;;;;2.15;0.55;;;14.70;99.90;;;;;;5036925;28;20065;-86
2023/05/15 08:54:52;;;;;;;0.82;0.40;;;14.60;99.90;;;;;;5018937;28;20084;-89
2023/05/15 08:57:18;;;;;;;0.25;0.25;;;14.70;99.90;;;;;;5019041;28;20037;-82
2023/05/15 08:59:45;;;;;;;4.28;0.80;;;14.90;99.90;;;;;;5017932;28;20049;-81
2023/05/15 09:02:10;;;;;;;1.17;0.30;;;15.10;99.90;;;;;;5017874;28;20124;-80
2023/05/15 09:04:36;;;;;;;3.22;0.40;;;15.40;99.90;;;;;;5035580;28;20065;-82
2023/05/15 09:07:02;;;;;;;0.55;0.40;;;16.10;99.90;;;;;;5017672;28;20067;-81
2023/05/15 09:09:30;;;;;;;0.28;0.28;;;16.40;99.90;;;;;;5035669;28;20037;-81
2023/05/15 09:11:58;;;;;;;0.80;0.20;;;16.90;99.90;;;;;;5017515;28;20049;-81
2023/05/15 09:14:23;;;;;;;2.75;0.20;;;16.90;99.90;;;;;;5017425;28;20042;-81
2023/05/15 09:16:52;;;;;;;0.38;0.30;;;16.20;99.90;;;;;;5035363;28;20036;-81
2023/05/15 09:19:20;;;;;;;0.30;0.30;;;15.60;99.90;;;;;;5017655;28;20042;-81
2023/05/15 09:21:45;;;;;;;0.50;0.50;;;15.30;99.90;;;;;;5017100;28;20030;-81
2023/05/15 09:24:18;;;;;;;0.40;0.35;;;15.30;99.90;;;;;;5034723;28;20045;-80
2023/05/15 09:26:46;;;;;;;0.20;0.20;;;15.20;99.90;;;;;;5035792;28;20033;-81
2023/05/15 09:29:15;;;;;;;1.13;0.40;;;14.90;99.90;;;;;;5035518;28;20068;-81
2023/05/15 09:31:41;;;;;;;0.50;0.50;;;14.90;99.90;;;;;;5035590;28;20087;-81
2023/05/15 09:34:09;;;;;;;0.35;0.20;;;15.10;99.90;;;;;;5035155;28;20033;-81
2023/05/15 09:36:35;;;;;;;0.20;0.10;;;15.50;99.90;;;;;;5017824;28;20034;-81
2023/05/15 09:39:01;;;;;;;0.20;0.20;;;15.70;99.90;;;;;;5034930;28;20033;-81
2023/05/15 09:41:27;;;;;;;0.15;0.10;;;15.60;99.90;;;;;;5034964;28;20038;-81
2023/05/15 09:43:55;;;;;;;0.20;0.20;;;15.70;99.90;;;;;;5034964;28;20037;-81
2023/05/15 09:46:22;;;;;;;0.15;0.13;;;15.80;99.90;;;;;;5017223;28;20065;-82
2023/05/15 09:48:48;;;;;;;0.13;0.10;;;16.20;99.90;;;;;;5035148;28;20455;-81
2023/05/15 09:51:18;;;;;;;0.30;0.10;;;16.80;99.90;;;;;;5017259;28;20037;-82
2023/05/15 09:53:54;;;;;;;0.95;0.20;;;16.90;99.90;;;;;;5034926;28;20488;-84
2023/05/15 09:56:20;;;;;;;2.15;0.17;;;16.90;99.90;;;;;;5017250;28;20033;-83
2023/05/15 09:58:58;;;;;;;0.20;0.10;;;16.70;99.90;;;;;;5017128;28;20226;-84
2023/05/15 10:01:24;;;;;;;0.10;0.10;;;16.30;99.90;;;;;;5017584;28;20441;-83
2023/05/15 10:04:00;;;;;;;0.10;0.10;;;16.00;99.90;;;;;;5017198;28;20115;-83
2023/05/15 10:06:33;;;;;;;0.47;0.20;;;15.90;99.90;;;;;;5011060;28;20045;-79
2023/05/15 10:09:01;;;;;;;0.95;0.20;;;15.90;99.90;;;;;;5007347;28;20430;-81
2023/05/15 10:11:28;;;;;;;1.85;0.10;;;16.10;99.90;;;;;;5006720;28;20050;-75
2023/05/15 10:13:54;;;;;;;0.88;0.20;;;16.10;99.90;;;;;;5025157;28;20037;-79
2023/05/15 10:16:23;;;;;;;0.22;0.13;;;16.40;99.90;;;;;;5007743;28;20762;-75
2023/05/15 10:18:51;;;;;;;0.10;0.10;;;17.00;99.90;;;;;;5016445;28;20037;-76
2023/05/15 10:21:18;;;;;;;0.15;0.10;;;17.80;99.90;;;;;;5034018;28;20036;-76
2023/05/15 10:23:46;;;;;;;0.00;0.00;;;17.50;99.90;;;;;;5016272;28;20117;-76
2023/05/15 10:26:22;;;;;;;1.30;0.20;;;17.00;99.90;;;;;;5034262;28;20111;-75
2023/05/15 10:28:48;;;;;;;1.58;0.28;;;16.70;99.90;;;;;;5033362;28;20037;-76
2023/05/15 10:31:16;;;;;;;1.58;0.10;;;16.50;99.90;;;;;;5024094;28;20048;-73
2023/05/15 10:33:43;;;;;;;0.10;0.10;;;16.40;99.90;;;;;;5022609;28;20091;-76
2023/05/15 10:36:09;;;;;;;0.52;0.20;;;16.20;99.90;;;;;;5023010;28;20879;-78
2023/05/15 10:38:36;;;;;;;0.05;0.05;;;15.90;99.90;;;;;;5023083;28;20172;-78
2023/05/15 10:41:04;;;;;;;1.55;0.15;;;15.70;99.90;;;;;;5004666;28;20481;-81
2023/05/15 10:43:30;;;;;;;0.10;0.10;;;15.80;99.90;;;;;;5022476;28;20041;-88
2023/05/15 10:45:57;;;;;;;0.98;0.10;;;15.50;99.90;;;;;;5005011;28;20044;-74
2023/05/15 10:48:23;;;;;;;0.20;0.10;;;16.10;99.90;;;;;;5004553;28;20054;-70
2023/05/15 10:50:49;;;;;;;2.08;0.17;;;16.60;99.90;;;;;;5005325;28;20108;-79
2023/05/15 10:53:16;;;;;;;3.33;0.10;;;16.90;99.90;;;;;;5004745;28;20033;-76
2023/05/15 10:55:41;;;;;;;1.75;0.20;;;17.10;99.90;;;;;;5004235;28;20062;-75
2023/05/15 10:58:08;;;;;;;3.80;0.20;;;17.20;99.90;;;;;;5004113;28;20038;-74
2023/05/15 11:00:41;;;;;;;0.20;0.20;;;17.60;99.90;;;;;;5004908;28;20037;-73
2023/05/15 11:03:07;;;;;;;2.58;0.17;;;18.10;99.90;;;;;;5022346;28;20048;-79
2023/05/15 11:06:11;;;;;;;0.30;0.25;;;18.80;98.60;;;;;;5023059;28;20461;-76
2023/05/15 11:08:39;;;;;;;2.78;0.10;;;19.60;97.30;;;;;;5022754;28;20041;-76
2023/05/15 11:11:05;;;;;;;0.20;0.20;;;19.80;91.30;;;;;;5022950;28;20143;-78
2023/05/15 11:14:01;;;;;;;0.47;0.20;;;19.70;91.40;;;;;;5005173;28;20045;-78
2023/05/15 11:16:52;;;;;;;1.10;0.20;;;18.60;92.80;;;;;;5022421;28;20099;-74
2023/05/15 11:19:21;;;;;;;0.20;0.20;;;17.80;95.50;;;;;;5022990;28;20085;-63
2023/05/15 11:21:47;;;;;;;0.20;0.20;;;17.80;97.30;;;;;;5023501;28;20669;-75
2023/05/15 11:24:12;;;;;;;0.20;0.10;;;17.90;96.70;;;;;;5022613;28;20054;-75
2023/05/15 11:26:41;;;;;;;1.40;0.20;;;18.70;96.60;;;;;;5023040;28;20505;-63
2023/05/15 11:29:17;;;;;;;0.32;0.00;;;19.50;94.10;;;;;;5029746;28;20048;-62
2023/05/15 11:31:43;;;;;;;2.20;0.10;;;19.70;92.70;;;;;;5032961;28;20033;-62
2023/05/15 11:34:09;;;;;;;0.20;0.20;;;19.80;91.20;;;;;;5033298;28;20056;-62
2023/05/15 11:36:38;;;;;;;0.10;0.03;;;20.00;90.80;;;;;;5032821;28;20030;-62
2023/05/15 11:39:10;;;;;;;2.28;0.20;;;20.00;90.30;;;;;;5032995;28;20045;-62
2023/05/15 11:41:36;;;;;;;1.45;0.10;;;20.20;90.70;;;;;;5015549;28;20030;-63
2023/05/15 11:44:02;;;;;;;1.65;0.05;;;21.10;89.00;;;;;;5033126;28;20069;-63
2023/05/15 11:46:29;;;;;;;0.10;0.10;;;20.50;87.80;;;;;;5035105;28;20124;-63
2023/05/15 11:48:54;;;;;;;4.18;0.10;;;20.20;90.10;;;;;;5036755;28;20042;-63
2023/05/15 11:51:26;;;;;;;0.40;0.00;;;20.70;89.70;;;;;;5036736;28;20083;-64
2023/05/15 11:53:53;;;;;;;0.00;0.00;;;20.80;82.30;;;;;;5018898;28;20065;-64
2023/05/15 11:56:28;;;;;;;0.10;0.00;;;20.80;82.20;;;;;;5036219;28;20512;-64
2023/05/15 11:58:56;;;;;;;0.17;0.08;;;20.80;83.70;;;;;;5036846;28;20044;-64
2023/05/15 12:01:22;;;;;;;0.93;0.10;;;20.60;81.90;;;;;;5036520;28;20033;-64
2023/05/15 12:03:48;;;;;;;0.10;0.10;;;20.40;83.00;;;;;;5036388;28;20031;-72
2023/05/15 12:06:15;;;;;;;0.38;0.20;;;20.80;80.00;;;;;;5035843;28;20033;-74
2023/05/15 12:08:41;;;;;;;0.25;0.00;;;21.00;79.70;;;;;;5036206;28;20071;-75
2023/05/15 12:11:07;;;;;;;1.17;0.10;;;21.20;78.60;;;;;;5018148;28;20128;-74
2023/05/15 12:13:33;;;;;;;5.63;0.40;;;21.20;78.40;;;;;;5018393;28;20038;-75
2023/05/15 12:16:02;;;;;;;0.65;0.20;;;21.50;79.80;;;;;;5036536;28;20431;-73
2023/05/15 12:18:29;;;;;;;0.05;0.05;;;21.70;74.90;;;;;;5018360;28;20049;-72
2023/05/15 12:20:55;;;;;;;0.65;0.10;;;22.10;75.00;;;;;;5036080;28;20037;-73
2023/05/15 12:23:22;;;;;;;2.97;0.20;;;22.40;74.20;;;;;;5036048;28;20064;-73
2023/05/15 12:25:50;;;;;;;0.05;0.05;;;22.70;71.80;;;;;;5036229;28;20030;-75
2023/05/15 12:28:16;;;;;;;0.75;0.30;;;22.50;73.00;;;;;;5036165;28;20372;-73
2023/05/15 12:30:42;;;;;;;0.50;0.10;;;23.10;71.90;;;;;;5035847;28;20120;-73
2023/05/15 12:33:09;;;;;;;0.52;0.10;;;23.30;68.50;;;;;;5036085;28;20034;-73
2023/05/15 12:35:39;;;;;;;1.85;0.28;;;23.10;67.90;;;;;;5035826;28;20125;-75
2023/05/15 12:38:06;;;;;;;0.43;0.10;;;22.50;67.00;;;;;;5018501;28;20033;-75
2023/05/15 12:40:36;;;;;;;2.95;0.10;;;21.70;70.00;;;;;;5017988;28;20444;-75
2023/05/15 12:43:09;;;;;;;0.40;0.00;;;21.70;72.70;;;;;;5035702;28;20034;-75
2023/05/15 12:45:37;;;;;;;0.98;0.03;;;22.40;70.70;;;;;;5035457;28;20504;-75
2023/05/15 12:48:04;;;;;;;1.17;0.00;;;22.40;68.00;;;;;;5035442;28;20119;-75